createdAt,value
2018-07-23T00:00:03.844Z,1004.82
2018-07-23T00:01:18.553Z,1004.79
2018-07-23T00:02:33.510Z,1004.82
2018-07-23T00:03:47.954Z,1004.83
2018-07-23T00:05:02.130Z,1004.82
2018-07-23T00:06:16.288Z,1004.85
2018-07-23T00:07:30.570Z,1004.87
2018-07-23T00:08:44.757Z,1004.87
2018-07-23T00:09:58.928Z,1004.85
2018-07-23T00:11:13.622Z,1004.84
2018-07-23T00:12:27.862Z,1004.86
2018-07-23T00:13:41.781Z,1004.82
2018-07-23T00:14:55.936Z,1004.78
2018-07-23T00:16:10.661Z,1004.82
2018-07-23T00:17:24.735Z,1004.8
2018-07-23T00:18:45.420Z,1004.83
2018-07-23T00:20:00.093Z,1004.81
2018-07-23T00:21:14.553Z,1004.79
2018-07-23T00:22:29.130Z,1004.78
2018-07-23T00:23:43.827Z,1004.78
2018-07-23T00:24:58.009Z,1004.77
2018-07-23T00:26:12.435Z,1004.73
2018-07-23T00:27:27.092Z,1004.72
2018-07-23T00:28:41.297Z,1004.73
2018-07-23T00:29:55.730Z,1004.71
2018-07-23T00:31:10.180Z,1004.7
2018-07-23T00:32:23.833Z,1004.7
2018-07-23T00:33:38.291Z,1004.68
2018-07-23T00:34:52.916Z,1004.67
2018-07-23T00:36:07.376Z,1004.69
2018-07-23T00:37:21.568Z,1004.7
2018-07-23T00:38:35.663Z,1004.68
2018-07-23T00:39:49.589Z,1004.68
2018-07-23T00:41:03.256Z,1004.7
2018-07-23T00:42:17.681Z,1004.69
2018-07-23T00:43:31.778Z,1004.71
2018-07-23T00:44:45.933Z,1004.64
2018-07-23T00:46:00.110Z,1004.69
2018-07-23T00:47:14.797Z,1004.67
2018-07-23T00:48:29.499Z,1004.69
2018-07-23T00:51:30.640Z,1004.74
2018-07-23T00:52:45.307Z,1004.76
2018-07-23T00:53:59.603Z,1004.79
2018-07-23T00:55:14.292Z,1004.76
2018-07-23T00:56:28.730Z,1004.8
2018-07-23T00:57:42.873Z,1004.8
2018-07-23T00:58:57.028Z,1004.79
2018-07-23T01:00:11.499Z,1004.82
2018-07-23T01:01:25.931Z,1004.82
2018-07-23T01:02:40.822Z,1004.79
2018-07-23T01:03:55.492Z,1004.8
2018-07-23T01:05:09.657Z,1004.78
2018-07-23T01:06:24.080Z,1004.79
2018-07-23T01:07:38.251Z,1004.79
2018-07-23T01:08:52.459Z,1004.75
2018-07-23T01:10:07.277Z,1004.79
2018-07-23T01:11:22.221Z,1004.77
2018-07-23T01:12:37.125Z,1004.76
2018-07-23T01:13:51.283Z,1004.72
2018-07-23T01:15:05.460Z,1004.69
2018-07-23T01:16:20.134Z,1004.72
2018-07-23T01:17:34.028Z,1004.75
2018-07-23T01:18:48.678Z,1004.7
2018-07-23T01:20:03.665Z,1004.7
2018-07-23T01:21:17.844Z,1004.73
2018-07-23T01:22:32.768Z,1004.71
2018-07-23T01:23:46.449Z,1004.71
2018-07-23T01:25:01.027Z,1004.74
2018-07-23T01:26:14.944Z,1004.7
2018-07-23T01:27:29.130Z,1004.72
2018-07-23T01:28:43.560Z,1004.74
2018-07-23T01:29:57.745Z,1004.72
2018-07-23T01:31:12.680Z,1004.69
2018-07-23T01:32:26.932Z,1004.7
2018-07-23T01:33:41.307Z,1004.68
2018-07-23T01:34:56.215Z,1004.71
2018-07-23T01:36:10.713Z,1004.71
2018-07-23T01:37:24.860Z,1004.72
2018-07-23T01:38:39.029Z,1004.73
2018-07-23T01:39:53.149Z,1004.72
2018-07-23T01:41:08.120Z,1004.74
2018-07-23T01:42:22.972Z,1004.7
2018-07-23T01:43:37.368Z,1004.72
2018-07-23T01:44:52.276Z,1004.71
2018-07-23T01:46:06.740Z,1004.71
2018-07-23T01:47:21.629Z,1004.71
2018-07-23T01:48:36.038Z,1004.72
2018-07-23T01:49:50.174Z,1004.69
2018-07-23T01:51:04.736Z,1004.71
2018-07-23T01:52:19.183Z,1004.7
2018-07-23T01:53:33.859Z,1004.72
2018-07-23T01:54:48.277Z,1004.75
2018-07-23T01:56:02.192Z,1004.77
2018-07-23T01:57:16.880Z,1004.72
2018-07-23T01:58:31.287Z,1004.75
2018-07-23T01:59:45.725Z,1004.74
2018-07-23T02:01:00.148Z,1004.72
2018-07-23T02:02:14.821Z,1004.73
2018-07-23T02:03:28.991Z,1004.71
2018-07-23T02:04:42.919Z,1004.68
2018-07-23T02:05:57.102Z,1004.71
2018-07-23T02:07:11.537Z,1004.69
2018-07-23T02:08:26.390Z,1004.72
2018-07-23T02:09:41.341Z,1004.7
2018-07-23T02:10:55.043Z,1004.7
2018-07-23T02:12:09.248Z,1004.72
2018-07-23T02:13:23.650Z,1004.72
2018-07-23T02:14:38.593Z,1004.72
2018-07-23T02:15:53.459Z,1004.73
2018-07-23T02:17:08.330Z,1004.77
2018-07-23T02:18:22.774Z,1004.79
2018-07-23T02:19:37.181Z,1004.82
2018-07-23T02:20:51.599Z,1004.81
2018-07-23T02:22:06.254Z,1004.81
2018-07-23T02:23:20.941Z,1004.81
2018-07-23T02:24:35.792Z,1004.81
2018-07-23T02:25:50.642Z,1004.84
2018-07-23T02:27:05.124Z,1004.84
2018-07-23T02:28:19.347Z,1004.86
2018-07-23T02:29:34.020Z,1004.84
2018-07-23T02:30:48.473Z,1004.89
2018-07-23T02:32:02.904Z,1004.84
2018-07-23T02:33:17.109Z,1004.83
2018-07-23T02:34:32.080Z,1004.84
2018-07-23T02:35:46.952Z,1004.84
2018-07-23T02:37:00.889Z,1004.82
2018-07-23T02:38:15.573Z,1004.85
2018-07-23T02:39:29.756Z,1004.83
2018-07-23T02:40:44.466Z,1004.83
2018-07-23T02:41:59.388Z,1004.9
2018-07-23T02:43:14.105Z,1004.85
2018-07-23T02:44:29.081Z,1004.88
2018-07-23T02:45:43.778Z,1004.9
2018-07-23T02:46:58.441Z,1004.88
2018-07-23T02:48:13.540Z,1004.93
2018-07-23T02:49:27.469Z,1004.95
2018-07-23T02:50:42.123Z,1004.98
2018-07-23T02:51:56.531Z,1004.93
2018-07-23T02:53:10.934Z,1004.98
2018-07-23T02:54:25.605Z,1004.96
2018-07-23T02:55:39.760Z,1004.97
2018-07-23T02:56:54.652Z,1004.92
2018-07-23T02:58:09.205Z,1004.95
2018-07-23T02:59:23.380Z,1004.94
2018-07-23T03:00:37.634Z,1004.97
2018-07-23T03:01:52.576Z,1004.97
2018-07-23T03:03:06.976Z,1004.93
2018-07-23T03:04:21.486Z,1004.97
2018-07-23T03:05:35.690Z,1005
2018-07-23T03:06:50.354Z,1004.97
2018-07-23T03:08:04.550Z,1004.94
2018-07-23T03:09:18.448Z,1004.97
2018-07-23T03:10:32.651Z,1004.94
2018-07-23T03:11:47.295Z,1004.93
2018-07-23T03:13:01.718Z,1004.95
2018-07-23T03:14:16.598Z,1004.94
2018-07-23T03:15:30.278Z,1004.97
2018-07-23T03:16:44.690Z,1004.96
2018-07-23T03:17:58.829Z,1004.97
2018-07-23T03:19:14.183Z,1004.98
2018-07-23T03:20:29.124Z,1004.99
2018-07-23T03:21:43.539Z,1005.05
2018-07-23T03:22:58.178Z,1005.04
2018-07-23T03:24:13.074Z,1005.06
2018-07-23T03:25:27.335Z,1005.07
2018-07-23T03:26:41.560Z,1005.07
2018-07-23T03:27:55.757Z,1005.05
2018-07-23T03:29:10.546Z,1005.11
2018-07-23T03:30:24.464Z,1005.12
2018-07-23T03:31:39.192Z,1005.11
2018-07-23T03:32:53.340Z,1005.15
2018-07-23T03:34:07.285Z,1005.15
2018-07-23T03:35:22.129Z,1005.15
2018-07-23T03:36:36.592Z,1005.18
2018-07-23T03:37:51.016Z,1005.19
2018-07-23T03:39:05.232Z,1005.21
2018-07-23T03:40:19.677Z,1005.18
2018-07-23T03:41:34.592Z,1005.16
2018-07-23T03:42:49.253Z,1005.16
2018-07-23T03:44:03.948Z,1005.17
2018-07-23T03:45:18.863Z,1005.22
2018-07-23T03:46:33.560Z,1005.24
2018-07-23T03:47:47.738Z,1005.22
2018-07-23T03:49:01.668Z,1005.26
2018-07-23T03:50:15.974Z,1005.26
2018-07-23T03:51:30.657Z,1005.25
2018-07-23T03:52:45.592Z,1005.3
2018-07-23T03:54:00.021Z,1005.29
2018-07-23T03:55:14.194Z,1005.27
2018-07-23T03:56:29.058Z,1005.28
2018-07-23T03:57:43.242Z,1005.27
2018-07-23T03:58:57.427Z,1005.33
2018-07-23T04:00:12.142Z,1005.32
2018-07-23T04:01:26.834Z,1005.36
2018-07-23T04:02:41.537Z,1005.33
2018-07-23T04:03:56.226Z,1005.36
2018-07-23T04:05:10.930Z,1005.36
2018-07-23T04:06:25.079Z,1005.33
2018-07-23T04:07:39.489Z,1005.31
2018-07-23T04:08:53.663Z,1005.33
2018-07-23T04:12:24.101Z,1005.34
2018-07-23T04:13:38.789Z,1005.32
2018-07-23T04:14:53.190Z,1005.34
2018-07-23T04:16:07.840Z,1005.35
2018-07-23T04:17:22.049Z,1005.35
2018-07-23T04:18:36.797Z,1005.38
2018-07-23T04:19:51.231Z,1005.42
2018-07-23T04:21:05.920Z,1005.37
2018-07-23T04:22:20.369Z,1005.36
2018-07-23T04:23:35.056Z,1005.38
2018-07-23T04:24:48.770Z,1005.4
2018-07-23T04:26:02.714Z,1005.4
2018-07-23T04:27:17.246Z,1005.43
2018-07-23T04:28:31.176Z,1005.43
2018-07-23T04:29:45.614Z,1005.47
2018-07-23T04:31:00.031Z,1005.43
2018-07-23T04:32:13.991Z,1005.43
2018-07-23T04:33:28.318Z,1005.44
2018-07-23T04:34:42.740Z,1005.47
2018-07-23T04:35:57.143Z,1005.47
2018-07-23T04:37:12.269Z,1005.47
2018-07-23T04:38:26.785Z,1005.49
2018-07-23T04:39:41.478Z,1005.48
2018-07-23T04:40:56.172Z,1005.51
2018-07-23T04:42:10.859Z,1005.49
2018-07-23T04:43:26.104Z,1005.47
2018-07-23T04:44:40.511Z,1005.56
2018-07-23T04:45:55.188Z,1005.57
2018-07-23T04:47:09.591Z,1005.62
2018-07-23T04:48:23.774Z,1005.63
2018-07-23T04:49:37.971Z,1005.65
2018-07-23T04:50:51.891Z,1005.65
2018-07-23T04:52:06.055Z,1005.65
2018-07-23T04:53:20.464Z,1005.64
2018-07-23T04:54:35.176Z,1005.69
2018-07-23T04:55:49.623Z,1005.73
2018-07-23T04:57:04.394Z,1005.73
2018-07-23T04:58:19.454Z,1005.8
2018-07-23T04:59:33.875Z,1005.78
2018-07-23T05:00:48.829Z,1005.8
2018-07-23T05:02:03.506Z,1005.8
2018-07-23T05:03:17.197Z,1005.8
2018-07-23T05:04:30.874Z,1005.8
2018-07-23T05:05:45.063Z,1005.78
2018-07-23T05:06:59.225Z,1005.78
2018-07-23T05:08:13.398Z,1005.76
2018-07-23T05:09:27.631Z,1005.8
2018-07-23T05:10:42.373Z,1005.79
2018-07-23T05:11:56.750Z,1005.78
2018-07-23T05:13:10.700Z,1005.76
2018-07-23T05:14:25.692Z,1005.78
2018-07-23T05:15:39.860Z,1005.8
2018-07-23T05:16:54.341Z,1005.8
2018-07-23T05:18:08.702Z,1005.86
2018-07-23T05:21:36.838Z,1005.92
2018-07-23T05:22:51.317Z,1005.92
2018-07-23T05:24:05.088Z,1005.93
2018-07-23T05:25:19.493Z,1005.97
2018-07-23T05:26:34.215Z,1005.96
2018-07-23T05:27:48.389Z,1005.99
2018-07-23T05:29:02.794Z,1005.94
2018-07-23T05:30:17.620Z,1005.92
2018-07-23T05:31:31.853Z,1005.9
2018-07-23T05:32:46.630Z,1005.94
2018-07-23T05:34:01.352Z,1005.9
2018-07-23T05:35:15.540Z,1005.86
2018-07-23T05:36:29.475Z,1005.83
2018-07-23T05:37:44.127Z,1005.87
2018-07-23T05:38:58.303Z,1005.89
2018-07-23T05:40:12.512Z,1005.88
2018-07-23T05:41:27.325Z,1005.93
2018-07-23T05:42:41.026Z,1005.91
2018-07-23T05:43:55.702Z,1005.9
2018-07-23T05:45:10.152Z,1005.92
2018-07-23T05:46:24.474Z,1005.98
2018-07-23T05:47:38.658Z,1005.93
2018-07-23T05:48:53.330Z,1005.94
2018-07-23T05:50:08.000Z,1005.91
2018-07-23T05:51:21.935Z,1005.95
2018-07-23T05:52:36.700Z,1005.95
2018-07-23T05:53:51.163Z,1005.93
2018-07-23T05:55:04.831Z,1005.96
2018-07-23T05:56:19.506Z,1005.95
2018-07-23T05:57:33.841Z,1005.92
2018-07-23T05:58:48.715Z,1005.92
2018-07-23T06:00:03.650Z,1005.93
2018-07-23T06:01:18.099Z,1005.93
2018-07-23T06:02:32.777Z,1005.91
2018-07-23T06:03:47.456Z,1005.95
2018-07-23T06:05:01.661Z,1005.9
2018-07-23T06:06:15.878Z,1005.92
2018-07-23T06:07:30.262Z,1005.93
2018-07-23T06:08:45.143Z,1005.93
2018-07-23T06:09:59.845Z,1005.98
2018-07-23T06:11:13.785Z,1005.97
2018-07-23T06:12:28.432Z,1006
2018-07-23T06:13:42.746Z,1006.04
2018-07-23T06:14:57.464Z,1006.03
2018-07-23T06:16:12.168Z,1006.04
2018-07-23T06:17:26.610Z,1006.03
2018-07-23T06:18:40.880Z,1006.03
2018-07-23T06:20:01.841Z,1006.04
2018-07-23T06:21:16.279Z,1006.07
2018-07-23T06:22:30.364Z,1006.06
2018-07-23T06:23:44.543Z,1006.01
2018-07-23T06:24:59.707Z,1006.03
2018-07-23T06:26:13.894Z,1006.02
2018-07-23T06:27:28.057Z,1006.07
2018-07-23T06:28:41.964Z,1006.03
2018-07-23T06:29:55.948Z,1006.03
2018-07-23T06:31:11.400Z,1006.07
2018-07-23T06:32:25.867Z,1006.1
2018-07-23T06:33:40.828Z,1006.11
2018-07-23T06:34:54.904Z,1006.17
2018-07-23T06:36:09.600Z,1006.17
2018-07-23T06:37:24.270Z,1006.19
2018-07-23T06:38:39.479Z,1006.2
2018-07-23T06:39:53.688Z,1006.2
2018-07-23T06:41:08.407Z,1006.17
2018-07-23T06:42:23.384Z,1006.22
2018-07-23T06:43:37.419Z,1006.26
2018-07-23T06:44:52.117Z,1006.22
2018-07-23T06:46:06.321Z,1006.22
2018-07-23T06:47:21.021Z,1006.21
2018-07-23T06:48:35.693Z,1006.23
2018-07-23T06:53:58.439Z,1006.25
2018-07-23T06:55:12.818Z,1006.26
2018-07-23T06:56:27.552Z,1006.28
2018-07-23T06:57:41.763Z,1006.27
2018-07-23T06:58:56.185Z,1006.27
2018-07-23T07:00:10.618Z,1006.31
2018-07-23T07:01:24.849Z,1006.32
2018-07-23T07:02:39.272Z,1006.4
2018-07-23T07:03:53.477Z,1006.37
2018-07-23T07:05:07.828Z,1006.35
2018-07-23T07:06:22.568Z,1006.37
2018-07-23T07:07:37.811Z,1006.35
2018-07-23T07:08:52.008Z,1006.35
2018-07-23T07:10:06.866Z,1006.33
2018-07-23T07:11:21.367Z,1006.38
2018-07-23T07:12:36.368Z,1006.37
2018-07-23T07:13:51.078Z,1006.38
2018-07-23T07:15:05.043Z,1006.38
2018-07-23T07:16:19.763Z,1006.4
2018-07-23T07:17:33.936Z,1006.37
2018-07-23T07:18:48.611Z,1006.41
2018-07-23T07:20:02.820Z,1006.39
2018-07-23T07:21:17.283Z,1006.4
2018-07-23T07:22:31.508Z,1006.41
2018-07-23T07:23:45.682Z,1006.41
2018-07-23T07:25:00.049Z,1006.38
2018-07-23T07:26:14.243Z,1006.4
2018-07-23T07:27:28.673Z,1006.32
2018-07-23T07:28:43.106Z,1006.34
2018-07-23T07:29:57.861Z,1006.33
2018-07-23T07:31:12.904Z,1006.33
2018-07-23T07:32:27.637Z,1006.39
2018-07-23T07:33:42.530Z,1006.36
2018-07-23T07:34:57.011Z,1006.36
2018-07-23T07:36:11.845Z,1006.41
2018-07-23T07:37:25.786Z,1006.37
2018-07-23T07:38:41.003Z,1006.35
2018-07-23T07:39:54.954Z,1006.37
2018-07-23T07:41:09.452Z,1006.33
2018-07-23T07:42:23.626Z,1006.34
2018-07-23T07:43:37.555Z,1006.34
2018-07-23T07:44:51.749Z,1006.28
2018-07-23T07:46:06.551Z,1006.29
2018-07-23T07:47:20.778Z,1006.29
2018-07-23T07:48:35.493Z,1006.28
2018-07-23T07:49:50.345Z,1006.3
2018-07-23T07:51:05.081Z,1006.3
2018-07-23T07:52:19.021Z,1006.31
2018-07-23T07:53:32.765Z,1006.32
2018-07-23T07:54:47.695Z,1006.29
2018-07-23T07:56:01.490Z,1006.29
2018-07-23T07:57:15.754Z,1006.3
2018-07-23T07:58:30.653Z,1006.27
2018-07-23T07:59:44.836Z,1006.28
2018-07-23T08:00:59.234Z,1006.26
2018-07-23T08:02:14.184Z,1006.25
2018-07-23T08:03:28.849Z,1006.22
2018-07-23T08:04:43.298Z,1006.23
2018-07-23T08:05:57.956Z,1006.24
2018-07-23T08:07:12.675Z,1006.25
2018-07-23T08:08:26.518Z,1006.23
2018-07-23T08:09:41.001Z,1006.23
2018-07-23T08:10:55.444Z,1006.23
2018-07-23T08:12:10.216Z,1006.27
2018-07-23T08:13:24.646Z,1006.21
2018-07-23T08:14:39.335Z,1006.21
2018-07-23T08:15:54.086Z,1006.22
2018-07-23T08:17:08.598Z,1006.22
2018-07-23T08:18:23.050Z,1006.2
2018-07-23T08:19:37.457Z,1006.2
2018-07-23T08:20:51.627Z,1006.23
2018-07-23T08:22:06.511Z,1006.22
2018-07-23T08:23:20.731Z,1006.23
2018-07-23T08:24:35.443Z,1006.23
2018-07-23T08:25:49.923Z,1006.23
2018-07-23T08:27:04.417Z,1006.24
2018-07-23T08:28:19.128Z,1006.24
2018-07-23T08:29:33.875Z,1006.28
2018-07-23T08:30:48.641Z,1006.27
2018-07-23T08:32:03.357Z,1006.24
2018-07-23T08:33:18.510Z,1006.24
2018-07-23T08:34:33.208Z,1006.26
2018-07-23T08:35:46.928Z,1006.25
2018-07-23T08:37:01.902Z,1006.3
2018-07-23T08:38:16.836Z,1006.28
2018-07-23T08:39:31.140Z,1006.27
2018-07-23T08:40:45.714Z,1006.25
2018-07-23T08:41:59.984Z,1006.31
2018-07-23T08:43:14.855Z,1006.26
2018-07-23T08:44:28.815Z,1006.29
2018-07-23T08:45:43.492Z,1006.27
2018-07-23T08:46:58.456Z,1006.29
2018-07-23T08:48:12.955Z,1006.32
2018-07-23T08:49:27.661Z,1006.31
2018-07-23T08:50:42.832Z,1006.29
2018-07-23T08:51:57.024Z,1006.28
2018-07-23T08:53:11.711Z,1006.29
2018-07-23T08:54:25.889Z,1006.29
2018-07-23T08:55:40.561Z,1006.3
2018-07-23T08:56:55.254Z,1006.26
2018-07-23T08:58:09.753Z,1006.25
2018-07-23T08:59:23.951Z,1006.21
2018-07-23T09:00:38.799Z,1006.19
2018-07-23T09:01:53.699Z,1006.16
2018-07-23T09:03:08.464Z,1006.16
2018-07-23T09:04:22.631Z,1006.15
2018-07-23T09:05:36.825Z,1006.15
2018-07-23T09:06:51.534Z,1006.12
2018-07-23T09:08:05.773Z,1006.14
2018-07-23T09:09:20.543Z,1006.16
2018-07-23T09:10:35.016Z,1006.13
2018-07-23T09:11:49.434Z,1006.12
2018-07-23T09:13:03.847Z,1006.13
2018-07-23T09:14:18.640Z,1006.09
2018-07-23T09:15:33.145Z,1006.08
2018-07-23T09:16:47.303Z,1006.09
2018-07-23T09:18:02.032Z,1006.1
2018-07-23T09:19:16.565Z,1006.08
2018-07-23T09:20:31.277Z,1006.04
2018-07-23T09:21:45.518Z,1006.07
2018-07-23T09:22:59.983Z,1006.06
2018-07-23T09:24:14.249Z,1006.07
2018-07-23T09:25:28.458Z,1006.07
2018-07-23T09:26:42.929Z,1006.04
2018-07-23T09:27:57.111Z,1006.06
2018-07-23T09:29:11.378Z,1006.1
2018-07-23T09:30:26.311Z,1006.09
2018-07-23T09:31:40.770Z,1006.09
2018-07-23T09:32:55.225Z,1006.08
2018-07-23T09:34:10.011Z,1006.08
2018-07-23T09:35:24.701Z,1006.08
2018-07-23T09:36:38.655Z,1006.08
2018-07-23T09:37:52.857Z,1006.08
2018-07-23T09:39:06.856Z,1006.09
2018-07-23T09:40:21.354Z,1006.08
2018-07-23T09:41:35.799Z,1006.05
2018-07-23T09:42:49.487Z,1006.04
2018-07-23T09:44:04.229Z,1006.05
2018-07-23T09:45:18.726Z,1006.04
2018-07-23T09:46:33.537Z,1006.02
2018-07-23T09:47:47.762Z,1006.01
2018-07-23T09:49:01.987Z,1006.01
2018-07-23T09:50:16.728Z,1005.96
2018-07-23T09:51:31.184Z,1005.96
2018-07-23T09:52:45.631Z,1005.98
2018-07-23T09:53:59.576Z,1005.98
2018-07-23T09:55:13.892Z,1005.95
2018-07-23T09:56:28.108Z,1005.97
2018-07-23T09:57:42.287Z,1005.91
2018-07-23T09:58:56.468Z,1005.96
2018-07-23T10:00:10.763Z,1005.96
2018-07-23T10:01:24.801Z,1005.94
2018-07-23T10:02:39.755Z,1005.91
2018-07-23T10:03:54.787Z,1005.91
2018-07-23T10:05:09.921Z,1005.92
2018-07-23T10:06:24.637Z,1005.96
2018-07-23T10:07:38.644Z,1005.97
2018-07-23T10:08:52.808Z,1005.89
2018-07-23T10:10:07.077Z,1005.89
2018-07-23T10:11:21.515Z,1005.92
2018-07-23T10:12:35.739Z,1005.91
2018-07-23T10:13:50.645Z,1005.84
2018-07-23T10:15:04.881Z,1005.87
2018-07-23T10:16:19.231Z,1005.84
2018-07-23T10:17:33.693Z,1005.88
2018-07-23T10:18:47.695Z,1005.88
2018-07-23T10:20:02.724Z,1005.85
2018-07-23T10:21:17.231Z,1005.89
2018-07-23T10:22:30.963Z,1005.79
2018-07-23T10:23:45.821Z,1005.84
2018-07-23T10:25:00.050Z,1005.86
2018-07-23T10:26:15.069Z,1005.89
2018-07-23T10:27:29.743Z,1005.9
2018-07-23T10:28:45.009Z,1005.88
2018-07-23T10:29:59.739Z,1005.84
2018-07-23T10:31:14.909Z,1005.84
2018-07-23T10:32:28.814Z,1005.81
2018-07-23T10:33:43.510Z,1005.83
2018-07-23T10:34:58.224Z,1005.84
2018-07-23T10:36:12.437Z,1005.8
2018-07-23T10:37:27.162Z,1005.83
2018-07-23T10:38:41.584Z,1005.83
2018-07-23T10:39:55.747Z,1005.82
2018-07-23T10:41:10.331Z,1005.83
2018-07-23T10:42:24.976Z,1005.84
2018-07-23T10:43:39.671Z,1005.77
2018-07-23T10:44:53.663Z,1005.78
2018-07-23T10:46:07.937Z,1005.76
2018-07-23T10:47:22.631Z,1005.74
2018-07-23T10:48:36.811Z,1005.72
2018-07-23T10:49:51.268Z,1005.67
2018-07-23T10:51:04.819Z,1005.69
2018-07-23T10:52:19.084Z,1005.7
2018-07-23T10:53:33.298Z,1005.67
2018-07-23T10:54:47.830Z,1005.65
2018-07-23T10:56:02.326Z,1005.71
2018-07-23T10:57:17.009Z,1005.67
2018-07-23T10:58:31.589Z,1005.71
2018-07-23T10:59:46.065Z,1005.69
2018-07-23T11:01:00.523Z,1005.68
2018-07-23T11:02:15.170Z,1005.7
2018-07-23T11:03:29.656Z,1005.67
2018-07-23T11:04:44.102Z,1005.7
2018-07-23T11:05:58.322Z,1005.74
2018-07-23T11:07:12.226Z,1005.69
2018-07-23T11:08:26.962Z,1005.7
2018-07-23T11:09:40.933Z,1005.68
2018-07-23T11:10:54.386Z,1005.72
2018-07-23T11:12:08.876Z,1005.74
2018-07-23T11:13:23.576Z,1005.75
2018-07-23T11:14:38.289Z,1005.77
2018-07-23T11:15:52.263Z,1005.7
2018-07-23T11:17:06.709Z,1005.72
2018-07-23T11:18:21.637Z,1005.72
2018-07-23T11:19:36.093Z,1005.75
2018-07-23T11:20:50.816Z,1005.73
2018-07-23T11:22:05.393Z,1005.66
2018-07-23T11:23:19.727Z,1005.68
2018-07-23T11:24:33.989Z,1005.67
2018-07-23T11:25:48.018Z,1005.65
2018-07-23T11:27:02.025Z,1005.64
2018-07-23T11:28:16.334Z,1005.62
2018-07-23T11:29:30.853Z,1005.65
2018-07-23T11:30:45.582Z,1005.62
2018-07-23T11:31:59.592Z,1005.64
2018-07-23T11:33:14.756Z,1005.64
2018-07-23T11:34:41.707Z,1005.62
2018-07-23T11:35:55.906Z,1005.58
2018-07-23T11:37:10.408Z,1005.6
2018-07-23T11:38:25.745Z,1005.54
2018-07-23T11:39:39.966Z,1005.57
2018-07-23T11:40:54.151Z,1005.58
2018-07-23T11:42:08.661Z,1005.6
2018-07-23T11:43:23.204Z,1005.55
2018-07-23T11:44:37.135Z,1005.55
2018-07-23T11:45:51.857Z,1005.59
2018-07-23T11:47:06.382Z,1005.57
2018-07-23T11:48:21.220Z,1005.56
2018-07-23T11:49:35.669Z,1005.57
2018-07-23T11:50:50.128Z,1005.56
2018-07-23T11:52:04.414Z,1005.58
2018-07-23T11:53:22.782Z,1005.57
2018-07-23T11:54:37.679Z,1005.55
2018-07-23T11:55:52.129Z,1005.56
2018-07-23T11:57:06.691Z,1005.58
2018-07-23T11:58:21.174Z,1005.52
2018-07-23T11:59:35.362Z,1005.54
2018-07-23T12:00:50.050Z,1005.57
2018-07-23T12:02:04.789Z,1005.58
2018-07-23T12:03:19.990Z,1005.61
2018-07-23T12:04:34.869Z,1005.56
2018-07-23T12:05:49.092Z,1005.61
2018-07-23T12:07:03.281Z,1005.6
2018-07-23T12:08:17.609Z,1005.57
2018-07-23T12:09:32.247Z,1005.6
2018-07-23T12:10:47.415Z,1005.59
2018-07-23T12:12:01.879Z,1005.57
2018-07-23T12:13:16.387Z,1005.57
2018-07-23T12:14:30.960Z,1005.52
2018-07-23T12:15:45.414Z,1005.52
2018-07-23T12:16:59.839Z,1005.55
2018-07-23T12:18:14.497Z,1005.52
2018-07-23T12:19:29.232Z,1005.52
2018-07-23T12:20:43.459Z,1005.5
2018-07-23T12:21:58.199Z,1005.48
2018-07-23T12:23:12.637Z,1005.42
2018-07-23T12:24:26.823Z,1005.42
2018-07-23T12:25:41.331Z,1005.41
2018-07-23T12:26:55.059Z,1005.43
2018-07-23T12:28:09.267Z,1005.43
2018-07-23T12:29:24.376Z,1005.35
2018-07-23T12:30:38.585Z,1005.32
2018-07-23T12:31:53.280Z,1005.32
2018-07-23T12:33:08.006Z,1005.33
2018-07-23T12:34:22.616Z,1005.33
2018-07-23T12:35:36.856Z,1005.3
2018-07-23T12:36:51.595Z,1005.31
2018-07-23T12:38:06.317Z,1005.29
2018-07-23T12:39:20.958Z,1005.29
2018-07-23T12:40:36.593Z,1005.29
2018-07-23T12:41:51.067Z,1005.28
2018-07-23T12:43:05.814Z,1005.26
2018-07-23T12:44:20.837Z,1005.27
2018-07-23T12:45:35.065Z,1005.25
2018-07-23T12:46:49.287Z,1005.31
2018-07-23T12:48:03.242Z,1005.27
2018-07-23T12:49:18.008Z,1005.21
2018-07-23T12:50:32.463Z,1005.26
2018-07-23T12:51:46.659Z,1005.25
2018-07-23T12:53:01.395Z,1005.24
2018-07-23T12:54:16.370Z,1005.22
2018-07-23T12:55:30.280Z,1005.18
2018-07-23T12:56:45.221Z,1005.19
2018-07-23T12:57:59.947Z,1005.21
2018-07-23T12:59:14.962Z,1005.17
2018-07-23T13:00:29.870Z,1005.19
2018-07-23T13:01:44.557Z,1005.19
2018-07-23T13:02:59.286Z,1005.14
2018-07-23T13:04:13.699Z,1005.19
2018-07-23T13:05:28.471Z,1005.23
2018-07-23T13:06:43.163Z,1005.22
2018-07-23T13:07:57.889Z,1005.19
2018-07-23T13:09:12.531Z,1005.16
2018-07-23T13:10:26.852Z,1005.16
2018-07-23T13:11:40.791Z,1005.2
2018-07-23T13:12:54.720Z,1005.18
2018-07-23T13:14:09.169Z,1005.2
2018-07-23T13:15:23.146Z,1005.16
2018-07-23T13:16:37.907Z,1005.14
2018-07-23T13:17:52.714Z,1005.09
2018-07-23T13:19:07.066Z,1005.1
2018-07-23T13:20:22.286Z,1005.12
2018-07-23T13:21:36.776Z,1005.12
2018-07-23T13:22:51.209Z,1005.11
2018-07-23T13:24:05.630Z,1005.1
2018-07-23T13:25:20.091Z,1005.07
2018-07-23T13:26:34.903Z,1005.02
2018-07-23T13:27:49.888Z,1005.11
2018-07-23T13:29:04.043Z,1005.09
2018-07-23T13:30:19.001Z,1005.08
2018-07-23T13:31:33.361Z,1005.11
2018-07-23T13:32:47.832Z,1005.14
2018-07-23T13:34:02.060Z,1005.05
2018-07-23T13:35:16.799Z,1005.07
2018-07-23T13:36:31.301Z,1005
2018-07-23T13:37:46.012Z,1005.06
2018-07-23T13:39:00.775Z,1005.01
2018-07-23T13:40:15.502Z,1004.98
2018-07-23T13:41:30.299Z,1004.98
2018-07-23T13:42:44.781Z,1005.02
2018-07-23T13:43:59.487Z,1004.97
2018-07-23T13:45:14.460Z,1004.96
2018-07-23T13:46:29.113Z,1004.96
2018-07-23T13:47:43.188Z,1004.99
2018-07-23T13:48:58.159Z,1005
2018-07-23T13:50:13.144Z,1004.96
2018-07-23T13:51:27.711Z,1004.97
2018-07-23T13:52:41.954Z,1004.92
2018-07-23T13:53:56.428Z,1004.92
2018-07-23T13:55:11.138Z,1004.88
2018-07-23T13:56:26.179Z,1004.88
2018-07-23T13:57:40.620Z,1004.87
2018-07-23T13:58:55.072Z,1004.86
2018-07-23T14:00:09.818Z,1004.83
2018-07-23T14:01:24.377Z,1004.87
2018-07-23T14:02:39.389Z,1004.83
2018-07-23T14:03:54.134Z,1004.84
2018-07-23T14:05:08.612Z,1004.85
2018-07-23T14:06:23.392Z,1004.82
2018-07-23T14:07:37.983Z,1004.82
2018-07-23T14:08:52.428Z,1004.85
2018-07-23T14:10:06.933Z,1004.82
2018-07-23T14:11:21.177Z,1004.81
2018-07-23T14:12:35.997Z,1004.82
2018-07-23T14:13:50.723Z,1004.87
2018-07-23T14:15:05.319Z,1004.79
2018-07-23T14:16:20.292Z,1004.74
2018-07-23T14:17:35.716Z,1004.82
2018-07-23T14:18:50.443Z,1004.78
2018-07-23T14:20:04.415Z,1004.76
2018-07-23T14:21:18.861Z,1004.74
2018-07-23T14:22:33.591Z,1004.77
2018-07-23T14:23:47.564Z,1004.74
2018-07-23T14:25:02.036Z,1004.74
2018-07-23T14:26:16.805Z,1004.74
2018-07-23T14:27:31.143Z,1004.7
2018-07-23T14:28:45.991Z,1004.74
2018-07-23T14:30:00.745Z,1004.74
2018-07-23T14:31:15.411Z,1004.76
2018-07-23T14:32:29.944Z,1004.77
2018-07-23T14:33:44.650Z,1004.78
2018-07-23T14:34:59.182Z,1004.78
2018-07-23T14:36:13.713Z,1004.77
2018-07-23T14:37:28.229Z,1004.77
2018-07-23T14:38:42.567Z,1004.74
2018-07-23T14:39:56.679Z,1004.67
2018-07-23T14:41:11.477Z,1004.68
2018-07-23T14:42:26.001Z,1004.67
2018-07-23T14:43:40.011Z,1004.67
2018-07-23T14:44:54.129Z,1004.64
2018-07-23T14:46:08.357Z,1004.55
2018-07-23T14:47:22.315Z,1004.59
2018-07-23T14:48:36.679Z,1004.56
2018-07-23T14:49:51.176Z,1004.51
2018-07-23T14:51:05.455Z,1004.52
2018-07-23T14:52:20.196Z,1004.5
2018-07-23T14:53:35.424Z,1004.51
2018-07-23T14:54:49.603Z,1004.47
2018-07-23T14:56:03.817Z,1004.47
2018-07-23T14:57:18.039Z,1004.45
2018-07-23T14:58:32.474Z,1004.48
2018-07-23T14:59:47.509Z,1004.46
2018-07-23T15:01:01.977Z,1004.48
2018-07-23T15:02:16.133Z,1004.39
2018-07-23T15:03:31.124Z,1004.4
2018-07-23T15:04:46.286Z,1004.4
2018-07-23T15:06:01.096Z,1004.39
2018-07-23T15:07:15.870Z,1004.39
2018-07-23T15:08:30.575Z,1004.42
2018-07-23T15:09:45.285Z,1004.32
2018-07-23T15:10:59.811Z,1004.4
2018-07-23T15:12:14.558Z,1004.39
2018-07-23T15:13:29.370Z,1004.43
2018-07-23T15:14:44.189Z,1004.4